createdAt,value
2023-01-30T00:06:21.555Z,1010.0369999999999
2023-01-30T00:36:39.373Z,1008.8839999999999
2023-01-30T01:06:56.046Z,1008.998
2023-01-30T01:37:14.670Z,1008.7439999999999
2023-01-30T02:07:31.404Z,1008.3689999999999
2023-01-30T02:37:48.206Z,1008.096
2023-01-30T03:08:05.288Z,1007.9689999999999
2023-01-30T03:38:22.766Z,1007.825
2023-01-30T04:08:41.939Z,1007.296
2023-01-30T04:39:00.684Z,1006.868
2023-01-30T05:09:19.052Z,1006.4010000000001
2023-01-30T05:39:38.186Z,1006.193
2023-01-30T06:09:56.560Z,1005.898
2023-01-30T06:40:14.775Z,1005.914
2023-01-30T07:10:33.689Z,1006.107
2023-01-30T07:40:51.250Z,1006.055
2023-01-30T08:11:09.204Z,1005.9810000000001
2023-01-30T08:41:27.407Z,1005.919
2023-01-30T09:42:07.171Z,1005.432
2023-01-30T10:12:28.969Z,1005.684
2023-01-30T10:42:47.683Z,1005.198
2023-01-30T11:13:10.996Z,1005.305
2023-01-30T11:43:31.455Z,1005.502
2023-01-30T12:13:48.313Z,1005.548
2023-01-30T12:44:03.535Z,1005.2739999999999
2023-01-30T13:14:20.491Z,1005.39
2023-01-30T13:44:39.407Z,1005.507
2023-01-30T14:14:58.329Z,1005.77
2023-01-30T14:45:16.143Z,1006.566
2023-01-30T15:15:32.420Z,1007.0269999999999
2023-01-30T15:45:50.865Z,1007.452
2023-01-30T16:16:07.564Z,1007.778
2023-01-30T16:46:23.012Z,1008.313
2023-01-30T17:16:40.758Z,1008.6039999999999
2023-01-30T17:46:58.948Z,1009.257
2023-01-30T18:17:17.531Z,1009.77
2023-01-30T18:47:34.871Z,1010.117
2023-01-30T19:17:52.331Z,1010.225
2023-01-30T19:48:10.631Z,1010.6669999999999
2023-01-30T20:18:28.842Z,1010.863
2023-01-30T20:48:45.153Z,1011.1080000000001
2023-01-30T21:19:04.098Z,1011.3439999999999
2023-01-30T21:49:21.443Z,1012.1389999999999
2023-01-30T22:19:37.546Z,1012.567
2023-01-30T22:49:55.256Z,1012.573
2023-01-30T23:20:11.519Z,1012.534
2023-01-30T23:50:28.572Z,1012.56
